createdAt,value
2022-08-27T00:00:18.459Z,1.50
2022-08-27T00:02:45.736Z,1.90
2022-08-27T00:05:15.006Z,1.40
2022-08-27T00:07:43.005Z,1.43
2022-08-27T00:10:14.867Z,1.40
2022-08-27T00:12:41.994Z,1.43
2022-08-27T00:15:09.366Z,1.40
2022-08-27T00:17:38.818Z,1.50
2022-08-27T00:20:06.597Z,1.70
2022-08-27T00:22:33.513Z,1.60
2022-08-27T00:25:00.634Z,1.60
2022-08-27T00:27:27.258Z,1.53
2022-08-27T00:29:53.966Z,1.40
2022-08-27T00:32:20.569Z,1.70
2022-08-27T00:34:47.179Z,1.70
2022-08-27T00:37:13.998Z,1.47
2022-08-27T00:39:40.713Z,1.57
2022-08-27T00:42:07.784Z,1.90
2022-08-27T00:44:34.766Z,1.90
2022-08-27T00:47:06.912Z,1.60
2022-08-27T00:49:54.370Z,1.30
2022-08-27T00:52:27.342Z,1.23
2022-08-27T00:55:02.993Z,1.17
2022-08-27T00:57:30.498Z,1.40
2022-08-27T00:59:57.165Z,1.60
2022-08-27T01:02:29.221Z,1.10
2022-08-27T01:05:00.478Z,1.80
2022-08-27T01:07:30.049Z,1.77
2022-08-27T01:10:00.158Z,1.77
2022-08-27T01:12:28.265Z,1.77
2022-08-27T01:14:56.333Z,1.80
2022-08-27T01:17:24.749Z,1.60
2022-08-27T01:19:58.846Z,1.63
2022-08-27T01:22:33.038Z,1.83
2022-08-27T01:25:06.018Z,1.47
2022-08-27T01:27:32.629Z,1.70
2022-08-27T01:29:59.715Z,1.67
2022-08-27T01:32:32.057Z,1.60
2022-08-27T01:35:00.161Z,1.37
2022-08-27T01:37:27.432Z,1.30
2022-08-27T01:39:56.962Z,1.57
2022-08-27T01:42:34.001Z,1.40
2022-08-27T01:45:06.073Z,1.90
2022-08-27T01:47:34.779Z,1.37
2022-08-27T01:50:02.493Z,1.60
2022-08-27T01:52:30.815Z,1.50
2022-08-27T01:54:57.925Z,1.63
2022-08-27T01:57:26.193Z,1.80
2022-08-27T01:59:54.739Z,1.73
2022-08-27T02:02:22.507Z,1.73
2022-08-27T02:04:51.049Z,1.90
2022-08-27T02:07:18.401Z,1.77
2022-08-27T02:09:45.266Z,1.50
2022-08-27T02:12:11.887Z,1.67
2022-08-27T02:14:38.486Z,2.00
2022-08-27T02:17:05.198Z,1.77
2022-08-27T02:19:31.788Z,1.87
2022-08-27T02:22:00.308Z,2.00
2022-08-27T02:24:28.395Z,1.73
2022-08-27T02:26:55.402Z,1.83
2022-08-27T02:29:22.870Z,2.37
2022-08-27T02:31:50.691Z,2.07
2022-08-27T02:34:18.219Z,1.70
2022-08-27T02:36:45.035Z,1.87
2022-08-27T02:39:12.042Z,1.67
2022-08-27T02:41:38.654Z,2.43
2022-08-27T02:44:10.376Z,2.80
2022-08-27T02:46:38.738Z,1.80
2022-08-27T02:49:05.627Z,2.27
2022-08-27T02:51:32.357Z,2.23
2022-08-27T02:53:59.857Z,2.00
2022-08-27T02:56:26.480Z,2.27
2022-08-27T02:58:53.565Z,2.07
2022-08-27T03:01:20.804Z,2.73
2022-08-27T03:03:47.457Z,2.70
2022-08-27T03:06:14.275Z,3.37
2022-08-27T03:08:52.146Z,2.63
2022-08-27T03:11:22.977Z,2.50
2022-08-27T03:13:50.375Z,2.80
2022-08-27T03:16:17.152Z,2.37
2022-08-27T03:18:44.437Z,2.37
2022-08-27T03:21:21.545Z,2.70
2022-08-27T03:23:51.293Z,2.57
2022-08-27T03:26:19.510Z,2.80
2022-08-27T03:28:46.716Z,2.60
2022-08-27T03:31:20.344Z,2.53
2022-08-27T03:33:46.992Z,2.30
2022-08-27T03:36:13.650Z,2.63
2022-08-27T03:38:40.376Z,2.90
2022-08-27T03:41:07.369Z,2.50
2022-08-27T03:43:34.039Z,2.53
2022-08-27T03:46:02.378Z,2.50
2022-08-27T03:48:31.651Z,2.53
2022-08-27T03:50:58.231Z,2.90
2022-08-27T03:53:24.841Z,3.00
2022-08-27T03:55:51.464Z,3.00
2022-08-27T03:58:18.472Z,3.03
2022-08-27T04:00:45.898Z,2.63
2022-08-27T04:03:14.079Z,2.73
2022-08-27T04:05:45.239Z,2.87
2022-08-27T04:08:13.176Z,2.37
2022-08-27T04:10:41.624Z,2.67
2022-08-27T04:13:08.347Z,2.97
2022-08-27T04:15:35.195Z,3.40
2022-08-27T04:18:07.291Z,2.37
2022-08-27T04:20:35.733Z,2.57
2022-08-27T04:23:03.126Z,2.60
2022-08-27T04:25:29.794Z,2.77
2022-08-27T04:27:56.732Z,2.63
2022-08-27T04:30:23.477Z,2.50
2022-08-27T04:32:50.595Z,2.40
2022-08-27T04:35:17.601Z,2.87
2022-08-27T04:37:44.318Z,2.50
2022-08-27T04:40:11.237Z,3.87
2022-08-27T04:42:37.999Z,3.00
2022-08-27T04:45:05.370Z,2.90
2022-08-27T04:47:32.164Z,3.00
2022-08-27T04:49:59.336Z,3.10
2022-08-27T04:52:26.205Z,2.80
2022-08-27T04:54:53.881Z,2.87
2022-08-27T04:57:20.951Z,3.33
2022-08-27T04:59:47.963Z,3.13
2022-08-27T05:02:14.616Z,3.03
2022-08-27T05:04:41.293Z,2.90
2022-08-27T05:07:10.026Z,2.80
2022-08-27T05:09:37.230Z,2.87
2022-08-27T05:12:04.134Z,3.33
2022-08-27T05:14:32.276Z,3.07
2022-08-27T05:16:59.902Z,3.33
2022-08-27T05:19:26.810Z,2.90
2022-08-27T05:21:53.832Z,3.13
2022-08-27T05:24:21.116Z,2.87
2022-08-27T05:26:48.210Z,3.00
2022-08-27T05:29:15.126Z,3.03
2022-08-27T05:31:42.882Z,3.27
2022-08-27T05:34:10.442Z,3.07
2022-08-27T05:36:47.740Z,3.30
2022-08-27T05:39:16.039Z,3.57
2022-08-27T05:41:42.955Z,3.40
2022-08-27T05:44:39.090Z,3.13
2022-08-27T05:46:57.373Z,3.63
2022-08-27T05:49:23.994Z,3.07
2022-08-27T05:51:50.616Z,3.00
2022-08-27T05:54:19.491Z,2.90
2022-08-27T05:56:47.331Z,3.30
2022-08-27T05:59:34.683Z,3.20
2022-08-27T06:02:02.246Z,3.40
2022-08-27T06:04:28.891Z,3.63
2022-08-27T06:06:55.577Z,3.17
2022-08-27T06:09:26.866Z,3.70
2022-08-27T06:11:55.438Z,3.37
2022-08-27T06:14:22.344Z,4.30
2022-08-27T06:16:49.114Z,3.17
2022-08-27T06:19:16.577Z,3.40
2022-08-27T06:21:43.350Z,3.17
2022-08-27T06:24:12.711Z,3.30
2022-08-27T06:26:41.890Z,3.13
2022-08-27T06:29:09.339Z,3.23
2022-08-27T06:31:35.985Z,3.17
2022-08-27T06:34:07.570Z,3.77
2022-08-27T06:36:37.996Z,3.33
2022-08-27T06:39:05.742Z,3.47
2022-08-27T06:41:33.302Z,3.30
2022-08-27T06:44:00.061Z,3.20
2022-08-27T06:46:29.487Z,3.23
2022-08-27T06:48:58.766Z,3.10
2022-08-27T06:51:29.710Z,3.47
2022-08-27T06:53:59.068Z,3.33
2022-08-27T06:56:26.274Z,3.10
2022-08-27T06:58:59.038Z,2.57
2022-08-27T07:01:30.589Z,3.20
2022-08-27T07:04:02.572Z,3.17
2022-08-27T07:06:30.493Z,3.23
2022-08-27T07:08:57.705Z,3.40
2022-08-27T07:11:25.251Z,2.97
2022-08-27T07:13:52.538Z,2.80
2022-08-27T07:16:22.771Z,2.97
2022-08-27T07:18:51.891Z,2.70
2022-08-27T07:21:21.926Z,2.40
2022-08-27T07:23:50.862Z,1.90
2022-08-27T07:26:19.355Z,2.60
2022-08-27T07:28:47.584Z,2.40
2022-08-27T07:31:17.537Z,2.67
2022-08-27T07:33:46.194Z,2.33
2022-08-27T07:36:19.357Z,2.43
2022-08-27T07:38:53.528Z,3.03
2022-08-27T07:41:30.582Z,2.87
2022-08-27T07:44:17.881Z,2.47
2022-08-27T07:46:48.365Z,2.90
2022-08-27T07:49:17.169Z,2.73
2022-08-27T07:51:44.386Z,2.60
2022-08-27T07:54:11.069Z,2.60
2022-08-27T07:56:37.866Z,2.30
2022-08-27T07:59:04.489Z,2.40
2022-08-27T08:01:31.233Z,2.63
2022-08-27T08:03:57.904Z,2.30
2022-08-27T08:06:24.531Z,2.07
2022-08-27T08:08:51.265Z,2.30
2022-08-27T08:11:18.547Z,2.20
2022-08-27T08:13:46.502Z,2.20
2022-08-27T08:16:13.456Z,1.90
2022-08-27T08:18:40.754Z,2.10
2022-08-27T08:21:10.809Z,1.90
2022-08-27T08:23:38.711Z,2.10
2022-08-27T08:26:07.056Z,1.93
2022-08-27T08:28:33.845Z,2.17
2022-08-27T08:31:00.511Z,1.73
2022-08-27T08:33:27.682Z,1.40
2022-08-27T08:35:54.768Z,1.87
2022-08-27T08:38:21.779Z,1.87
2022-08-27T08:40:54.492Z,1.53
2022-08-27T08:43:33.046Z,1.80
2022-08-27T08:46:17.878Z,1.93
2022-08-27T08:48:49.459Z,2.07
2022-08-27T08:51:29.766Z,1.60
2022-08-27T08:54:03.361Z,2.20
2022-08-27T08:56:52.989Z,1.80
2022-08-27T08:59:32.730Z,1.57
2022-08-27T09:01:59.705Z,2.00
2022-08-27T09:04:27.862Z,2.07
2022-08-27T09:07:17.531Z,2.07
2022-08-27T09:09:47.030Z,1.97
2022-08-27T09:12:24.879Z,1.70
2022-08-27T09:15:04.128Z,1.77
2022-08-27T09:17:32.681Z,2.20
2022-08-27T09:19:59.321Z,2.20
2022-08-27T09:22:41.730Z,2.17
2022-08-27T09:25:21.014Z,2.20
2022-08-27T09:27:50.574Z,2.40
2022-08-27T09:30:30.861Z,2.30
2022-08-27T09:33:06.877Z,2.07
2022-08-27T09:35:42.892Z,2.10
2022-08-27T09:38:10.190Z,2.60
2022-08-27T09:40:49.427Z,2.27
2022-08-27T09:43:16.519Z,2.30
2022-08-27T09:45:58.289Z,2.37
2022-08-27T09:48:37.209Z,2.30
2022-08-27T09:51:10.640Z,2.17
2022-08-27T09:53:44.888Z,2.20
2022-08-27T09:56:27.978Z,2.10
2022-08-27T09:59:09.189Z,2.03
2022-08-27T10:01:50.053Z,1.83
2022-08-27T10:04:24.383Z,1.63
2022-08-27T10:06:52.187Z,2.00
2022-08-27T10:09:39.032Z,3.17
2022-08-27T10:12:19.424Z,1.90
2022-08-27T10:14:51.194Z,1.60
2022-08-27T10:17:52.680Z,1.90
2022-08-27T10:20:34.495Z,2.17
2022-08-27T10:23:10.125Z,1.65
2022-08-27T10:26:04.211Z,1.90
2022-08-27T10:28:49.499Z,1.83
2022-08-27T10:31:34.886Z,1.90
2022-08-27T10:34:26.022Z,1.67
2022-08-27T10:37:36.810Z,1.98
2022-08-27T10:40:18.872Z,2.10
2022-08-27T10:42:57.564Z,2.15
2022-08-27T10:45:33.256Z,2.08
2022-08-27T10:48:28.459Z,2.55
2022-08-27T10:51:23.350Z,2.30
2022-08-27T10:53:49.905Z,2.65
2022-08-27T10:56:38.041Z,2.58
2022-08-27T10:59:32.087Z,2.88
2022-08-27T11:02:18.044Z,2.53
2022-08-27T11:04:53.452Z,2.03
2022-08-27T11:07:41.093Z,2.38
2022-08-27T11:10:24.353Z,2.33
2022-08-27T11:12:54.718Z,2.72
2022-08-27T11:15:29.993Z,2.63
2022-08-27T11:18:16.438Z,2.97
2022-08-27T11:21:04.693Z,2.55
2022-08-27T11:23:52.473Z,2.50
2022-08-27T11:26:19.143Z,2.30
2022-08-27T11:28:56.953Z,2.53
2022-08-27T11:31:41.598Z,2.92
2022-08-27T11:34:17.539Z,2.40
2022-08-27T11:36:47.695Z,2.53
2022-08-27T11:39:39.871Z,2.60
2022-08-27T11:42:48.422Z,2.28
2022-08-27T11:45:38.634Z,2.53
2022-08-27T11:48:28.282Z,2.53
2022-08-27T11:50:57.165Z,2.60
2022-08-27T11:53:28.616Z,2.05
2022-08-27T11:55:56.106Z,2.10
2022-08-27T11:58:24.498Z,1.92
2022-08-27T12:00:54.902Z,2.30
2022-08-27T12:03:21.545Z,1.95
2022-08-27T12:05:54.442Z,2.03
2022-08-27T12:08:24.013Z,1.92
2022-08-27T12:11:27.795Z,1.58
2022-08-27T12:14:24.316Z,1.80
2022-08-27T12:17:05.152Z,1.77
2022-08-27T12:19:44.003Z,2.00
2022-08-27T12:23:02.221Z,2.13
2022-08-27T12:25:29.064Z,1.83
2022-08-27T12:28:05.785Z,1.80
2022-08-27T12:30:35.571Z,1.50
2022-08-27T12:33:19.120Z,2.13
2022-08-27T12:35:50.443Z,1.90
2022-08-27T12:38:39.853Z,2.08
2022-08-27T12:41:11.141Z,1.83
2022-08-27T12:43:43.301Z,2.40
2022-08-27T12:46:18.970Z,1.95
2022-08-27T12:48:55.139Z,1.85
2022-08-27T12:51:30.082Z,1.90
2022-08-27T12:54:08.717Z,1.95
2022-08-27T12:56:49.878Z,2.25
2022-08-27T12:59:38.348Z,2.03
2022-08-27T13:02:34.664Z,1.73
2022-08-27T13:05:04.449Z,1.77
2022-08-27T13:07:43.850Z,2.00
2022-08-27T13:10:20.477Z,1.98
2022-08-27T13:12:48.783Z,1.80
2022-08-27T13:15:17.069Z,1.77
2022-08-27T13:17:46.179Z,1.63
2022-08-27T13:20:17.230Z,1.92
2022-08-27T13:22:44.346Z,1.63
2022-08-27T13:25:34.907Z,2.10
2022-08-27T13:28:12.696Z,2.10
2022-08-27T13:30:42.582Z,1.92
2022-08-27T13:33:14.584Z,1.75
2022-08-27T13:35:43.566Z,1.65
2022-08-27T13:38:10.898Z,1.80
2022-08-27T13:41:07.802Z,1.85
2022-08-27T13:43:36.092Z,1.63
2022-08-27T13:46:07.318Z,1.65
2022-08-27T13:48:34.475Z,1.88
2022-08-27T13:51:01.957Z,2.08
2022-08-27T13:53:50.195Z,1.90
2022-08-27T13:56:44.429Z,1.65
2022-08-27T13:59:15.018Z,2.00
2022-08-27T14:02:09.699Z,2.80
2022-08-27T14:04:43.269Z,1.90
2022-08-27T14:07:20.572Z,2.53
2022-08-27T14:09:54.198Z,2.00
2022-08-27T14:12:34.901Z,2.08
2022-08-27T14:15:32.106Z,2.00
2022-08-27T14:17:58.945Z,2.45
2022-08-27T14:20:25.639Z,1.90
2022-08-27T14:22:52.618Z,2.47
2022-08-27T14:25:22.495Z,2.05
2022-08-27T14:27:54.367Z,2.20
2022-08-27T14:30:29.663Z,2.03
2022-08-27T14:33:00.746Z,2.15
2022-08-27T14:35:29.488Z,2.20
2022-08-27T14:37:56.438Z,2.40
2022-08-27T14:40:23.188Z,2.25
2022-08-27T14:42:49.884Z,2.00
2022-08-27T14:45:18.318Z,2.45
2022-08-27T14:47:45.171Z,2.08
2022-08-27T14:50:13.544Z,2.22
2022-08-27T14:52:40.700Z,2.80
2022-08-27T14:55:10.899Z,2.28
2022-08-27T14:57:38.706Z,2.78
2022-08-27T15:00:07.754Z,2.30
2022-08-27T15:02:34.990Z,2.40
2022-08-27T15:05:01.803Z,2.50
2022-08-27T15:07:38.602Z,2.10
2022-08-27T15:10:08.029Z,1.67
2022-08-27T15:12:34.762Z,2.03
2022-08-27T15:15:01.449Z,2.28
2022-08-27T15:17:35.034Z,2.30
2022-08-27T15:20:09.133Z,2.20
2022-08-27T15:22:44.000Z,2.05
2022-08-27T15:25:11.865Z,2.00
2022-08-27T15:27:39.260Z,2.47
2022-08-27T15:30:09.557Z,2.08
2022-08-27T15:32:40.091Z,1.92
2022-08-27T15:35:12.190Z,1.88
2022-08-27T15:37:38.869Z,2.40
2022-08-27T15:40:06.346Z,2.90
2022-08-27T15:42:33.038Z,2.25
2022-08-27T15:44:59.703Z,2.45
2022-08-27T15:47:26.587Z,2.65
2022-08-27T15:49:53.223Z,2.67
2022-08-27T15:52:21.826Z,2.70
2022-08-27T15:54:50.006Z,2.53
2022-08-27T15:57:17.691Z,2.42
2022-08-27T15:59:44.742Z,2.33
2022-08-27T16:02:16.414Z,2.30
2022-08-27T16:04:44.589Z,3.08
2022-08-27T16:07:16.654Z,2.58
2022-08-27T16:09:47.709Z,2.47
2022-08-27T16:12:26.827Z,2.90
2022-08-27T16:14:54.786Z,2.60
2022-08-27T16:17:21.644Z,2.83
2022-08-27T16:19:48.511Z,2.40
2022-08-27T16:22:16.235Z,2.35
2022-08-27T16:24:43.080Z,2.73
2022-08-27T16:27:09.787Z,2.80
2022-08-27T16:29:36.857Z,1.67
2022-08-27T16:32:04.102Z,2.50
2022-08-27T16:34:31.121Z,2.47
2022-08-27T16:36:57.787Z,3.10
2022-08-27T16:39:25.802Z,2.30
2022-08-27T16:41:57.296Z,2.53
2022-08-27T16:44:26.002Z,2.40
2022-08-27T16:46:53.168Z,2.90
2022-08-27T16:49:38.350Z,2.77
2022-08-27T16:52:06.689Z,2.23
2022-08-27T16:54:33.817Z,6.83
2022-08-27T16:57:00.782Z,4.50
2022-08-27T16:59:27.391Z,3.27
2022-08-27T17:01:55.103Z,2.67
2022-08-27T17:04:30.299Z,2.37
2022-08-27T17:06:58.284Z,2.50
2022-08-27T17:09:25.041Z,3.20
2022-08-27T17:11:56.786Z,4.50
2022-08-27T17:14:23.454Z,3.93
2022-08-27T17:16:50.099Z,2.97
2022-08-27T17:19:18.611Z,3.60
2022-08-27T17:21:45.668Z,2.43
2022-08-27T17:24:12.986Z,2.10
2022-08-27T17:26:40.130Z,1.83
2022-08-27T17:29:06.874Z,2.37
2022-08-27T17:31:38.815Z,2.73
2022-08-27T17:34:07.126Z,4.50
2022-08-27T17:36:33.939Z,3.77
2022-08-27T17:39:02.830Z,2.77
2022-08-27T17:41:38.843Z,2.27
2022-08-27T17:44:10.776Z,1.80
2022-08-27T17:46:37.671Z,1.77
2022-08-27T17:49:04.688Z,2.00
2022-08-27T17:51:31.297Z,2.40
2022-08-27T17:54:01.265Z,2.37
2022-08-27T17:56:29.092Z,2.07
2022-08-27T17:58:56.131Z,1.93
2022-08-27T18:01:29.044Z,1.73
2022-08-27T18:03:58.040Z,2.13
2022-08-27T18:06:26.682Z,2.00
2022-08-27T18:08:53.622Z,2.20
2022-08-27T18:11:20.329Z,1.43
2022-08-27T18:13:52.197Z,2.10
2022-08-27T18:16:19.296Z,1.77
2022-08-27T18:18:45.988Z,2.03
2022-08-27T18:21:12.578Z,2.37
2022-08-27T18:23:40.027Z,2.20
2022-08-27T18:26:13.272Z,1.93
2022-08-27T18:28:42.282Z,1.60
2022-08-27T18:31:09.867Z,2.03
2022-08-27T18:33:37.583Z,2.10
2022-08-27T18:36:05.497Z,2.37
2022-08-27T18:38:32.447Z,2.23
2022-08-27T18:41:00.418Z,3.70
2022-08-27T18:43:33.133Z,3.27
2022-08-27T18:45:59.966Z,2.47
2022-08-27T18:48:26.698Z,2.87
2022-08-27T18:50:58.369Z,2.43
2022-08-27T18:53:27.482Z,2.30
2022-08-27T18:55:54.483Z,2.63
2022-08-27T18:58:21.632Z,1.93
2022-08-27T19:00:52.154Z,1.80
2022-08-27T19:03:28.287Z,1.57
2022-08-27T19:05:56.130Z,1.97
2022-08-27T19:08:24.117Z,2.20
2022-08-27T19:10:51.302Z,1.70
2022-08-27T19:13:18.077Z,1.67
2022-08-27T19:16:00.398Z,1.50
2022-08-27T19:18:29.383Z,2.23
2022-08-27T19:20:57.170Z,1.73
2022-08-27T19:23:24.407Z,1.70
2022-08-27T19:25:52.386Z,1.70
2022-08-27T19:28:24.078Z,1.80
2022-08-27T19:30:50.871Z,1.80
2022-08-27T19:33:17.935Z,1.40
2022-08-27T19:35:44.655Z,1.70
2022-08-27T19:38:13.452Z,1.60
2022-08-27T19:40:41.353Z,1.43
2022-08-27T19:43:08.829Z,1.50
2022-08-27T19:45:36.491Z,1.60
2022-08-27T19:48:07.670Z,1.60
2022-08-27T19:50:34.681Z,1.30
2022-08-27T19:53:01.398Z,1.37
2022-08-27T19:55:28.025Z,1.10
2022-08-27T19:57:54.657Z,1.40
2022-08-27T20:00:24.642Z,1.17
2022-08-27T20:02:54.885Z,1.30
2022-08-27T20:05:21.611Z,1.93
2022-08-27T20:07:51.000Z,1.30
2022-08-27T20:10:21.589Z,1.33
2022-08-27T20:12:49.007Z,1.40
2022-08-27T20:15:16.094Z,1.57
2022-08-27T20:17:43.948Z,1.43
2022-08-27T20:20:12.438Z,1.90
2022-08-27T20:22:39.881Z,1.33
2022-08-27T20:25:06.942Z,1.40
2022-08-27T20:27:34.097Z,1.80
2022-08-27T20:30:00.793Z,1.60
2022-08-27T20:32:29.936Z,1.40
2022-08-27T20:34:57.282Z,2.70
2022-08-27T20:37:24.240Z,1.60
2022-08-27T20:39:52.537Z,2.63
2022-08-27T20:42:19.932Z,1.57
2022-08-27T20:44:46.855Z,1.67
2022-08-27T20:47:13.754Z,1.50
2022-08-27T20:49:41.486Z,1.53
2022-08-27T20:52:11.547Z,1.60
2022-08-27T20:54:39.193Z,1.60
2022-08-27T20:57:06.080Z,1.90
2022-08-27T20:59:51.230Z,1.33
2022-08-27T21:02:26.694Z,1.10
2022-08-27T21:04:53.541Z,1.90
2022-08-27T21:07:21.281Z,1.50
2022-08-27T21:09:55.570Z,1.53
2022-08-27T21:12:27.957Z,2.37
2022-08-27T21:14:56.181Z,1.70
2022-08-27T21:17:25.228Z,1.50
2022-08-27T21:19:52.282Z,1.57
2022-08-27T21:22:20.020Z,1.97
2022-08-27T21:24:47.562Z,1.43
2022-08-27T21:27:15.949Z,1.40
2022-08-27T21:29:44.487Z,1.50
2022-08-27T21:32:11.688Z,1.67
2022-08-27T21:34:38.366Z,1.97
2022-08-27T21:37:05.075Z,1.47
2022-08-27T21:39:33.246Z,1.37
2022-08-27T21:42:01.431Z,1.83
2022-08-27T21:44:29.523Z,1.57
2022-08-27T21:46:56.807Z,1.47
2022-08-27T21:49:23.470Z,2.03
2022-08-27T21:51:50.076Z,2.43
2022-08-27T21:54:17.896Z,1.20
2022-08-27T21:56:45.556Z,1.80
2022-08-27T21:59:12.214Z,1.37
2022-08-27T22:01:39.528Z,1.80
2022-08-27T22:04:06.490Z,1.40
2022-08-27T22:06:33.125Z,1.87
2022-08-27T22:09:00.046Z,1.83
2022-08-27T22:11:27.494Z,1.40
2022-08-27T22:13:57.891Z,1.40
2022-08-27T22:16:24.742Z,1.73
2022-08-27T22:18:54.531Z,1.60
2022-08-27T22:21:22.194Z,1.60
2022-08-27T22:23:51.227Z,1.87
2022-08-27T22:26:18.549Z,1.73
2022-08-27T22:28:45.238Z,1.80
2022-08-27T22:31:11.934Z,2.23
2022-08-27T22:33:38.747Z,1.63
2022-08-27T22:36:05.578Z,1.60
2022-08-27T22:38:32.169Z,1.53
2022-08-27T22:40:59.386Z,1.40
2022-08-27T22:43:27.765Z,1.20
2022-08-27T22:45:54.359Z,1.33
2022-08-27T22:48:21.155Z,1.30
2022-08-27T22:50:47.767Z,1.40
2022-08-27T22:53:14.489Z,1.40
2022-08-27T22:55:41.185Z,1.50
2022-08-27T22:58:07.878Z,1.53
2022-08-27T23:00:37.073Z,1.50
2022-08-27T23:03:06.713Z,1.50
2022-08-27T23:05:40.274Z,1.30
2022-08-27T23:08:10.362Z,1.60
2022-08-27T23:10:38.479Z,1.40
2022-08-27T23:13:06.836Z,1.20
2022-08-27T23:15:33.578Z,1.40
2022-08-27T23:18:01.430Z,1.30
2022-08-27T23:20:28.735Z,1.40
2022-08-27T23:22:56.325Z,1.30
2022-08-27T23:25:43.530Z,1.30
2022-08-27T23:28:14.410Z,1.70
2022-08-27T23:30:42.679Z,1.67
2022-08-27T23:33:09.602Z,1.20
2022-08-27T23:35:36.321Z,1.20
2022-08-27T23:38:03.051Z,1.13
2022-08-27T23:40:30.262Z,1.43
2022-08-27T23:42:56.970Z,1.20
2022-08-27T23:45:25.345Z,1.60
2022-08-27T23:47:52.603Z,1.00
2022-08-27T23:50:20.318Z,1.20
2022-08-27T23:52:49.701Z,2.03
2022-08-27T23:55:16.346Z,1.63
2022-08-27T23:57:43.356Z,0.90
